createdAt,value
2017-10-16T00:01:38.701Z,2.20
2017-10-16T00:04:07.189Z,2.60
2017-10-16T00:06:35.512Z,2.90
2017-10-16T00:09:04.073Z,2.53
2017-10-16T00:11:32.822Z,2.30
2017-10-16T00:14:01.180Z,2.60
2017-10-16T00:16:29.519Z,2.23
2017-10-16T00:18:58.721Z,2.67
2017-10-16T00:21:27.093Z,2.50
2017-10-16T00:23:55.453Z,2.50
2017-10-16T00:26:23.777Z,2.53
2017-10-16T00:28:52.099Z,2.30
2017-10-16T00:31:20.959Z,2.13
2017-10-16T00:33:49.295Z,2.20
2017-10-16T00:36:17.605Z,2.20
2017-10-16T00:38:45.960Z,2.57
2017-10-16T00:41:14.298Z,2.10
2017-10-16T00:43:42.596Z,2.50
2017-10-16T00:46:10.973Z,2.80
2017-10-16T00:48:39.282Z,2.80
2017-10-16T00:51:07.641Z,2.20
2017-10-16T00:53:35.964Z,3.30
2017-10-16T00:56:04.280Z,2.80
2017-10-16T00:58:32.667Z,3.03
2017-10-16T01:01:01.011Z,2.90
2017-10-16T01:03:29.393Z,2.73
2017-10-16T01:05:57.792Z,2.87
2017-10-16T01:08:26.136Z,3.60
2017-10-16T01:10:54.488Z,3.10
2017-10-16T01:13:22.960Z,2.87
2017-10-16T01:15:51.267Z,2.77
2017-10-16T01:18:19.588Z,3.23
2017-10-16T01:20:47.964Z,3.60
2017-10-16T01:23:16.292Z,2.97
2017-10-16T01:25:44.697Z,3.00
2017-10-16T01:28:13.293Z,2.97
2017-10-16T01:30:41.648Z,2.43
2017-10-16T01:33:10.021Z,2.37
2017-10-16T01:35:38.344Z,3.10
2017-10-16T01:38:06.730Z,2.83
2017-10-16T01:40:35.101Z,2.77
2017-10-16T01:43:03.429Z,2.57
2017-10-16T01:45:32.134Z,2.53
2017-10-16T01:48:00.669Z,2.40
2017-10-16T01:50:29.086Z,2.90
2017-10-16T01:52:57.468Z,2.90
2017-10-16T01:55:25.815Z,2.93
2017-10-16T01:57:54.176Z,2.37
2017-10-16T02:00:22.495Z,2.77
2017-10-16T02:02:50.834Z,3.57
2017-10-16T02:05:19.158Z,2.40
2017-10-16T02:07:48.097Z,2.33
2017-10-16T02:10:16.401Z,2.43
2017-10-16T02:12:44.714Z,2.47
2017-10-16T02:15:13.113Z,2.27
2017-10-16T02:17:42.233Z,2.53
2017-10-16T02:20:10.617Z,2.20
2017-10-16T02:22:39.260Z,2.20
2017-10-16T02:25:07.580Z,2.70
2017-10-16T02:27:35.957Z,1.90
2017-10-16T02:30:04.253Z,2.43
2017-10-16T02:32:32.669Z,2.63
2017-10-16T02:35:01.009Z,2.10
2017-10-16T02:37:29.375Z,2.40
2017-10-16T02:39:57.754Z,2.37
2017-10-16T02:42:26.088Z,2.53
2017-10-16T02:44:54.398Z,1.80
2017-10-16T02:47:22.786Z,2.40
2017-10-16T02:49:51.185Z,3.73
2017-10-16T02:52:19.781Z,2.20
2017-10-16T02:54:48.708Z,1.90
2017-10-16T02:57:17.076Z,1.90
2017-10-16T02:59:45.422Z,2.30
2017-10-16T03:02:13.736Z,1.93
2017-10-16T03:04:42.105Z,2.73
2017-10-16T03:07:10.420Z,3.13
2017-10-16T03:09:38.804Z,3.60
2017-10-16T03:12:07.182Z,2.67
2017-10-16T03:14:35.619Z,4.47
2017-10-16T03:17:03.982Z,4.03
2017-10-16T03:19:32.305Z,3.10
2017-10-16T03:22:00.701Z,1.83
2017-10-16T03:24:29.116Z,4.50
2017-10-16T03:26:57.697Z,2.03
2017-10-16T03:29:26.045Z,2.17
2017-10-16T03:31:54.373Z,3.93
2017-10-16T03:34:22.988Z,3.30
2017-10-16T03:36:51.300Z,3.23
2017-10-16T03:39:19.614Z,2.43
2017-10-16T03:41:48.044Z,3.97
2017-10-16T03:44:16.344Z,3.07
2017-10-16T03:46:44.833Z,2.57
2017-10-16T03:49:13.373Z,2.40
2017-10-16T03:51:41.686Z,2.63
2017-10-16T03:54:10.106Z,2.43
2017-10-16T03:56:38.429Z,2.43
2017-10-16T03:59:06.978Z,2.33
2017-10-16T04:01:35.398Z,2.20
2017-10-16T04:04:03.739Z,2.20
2017-10-16T04:06:32.125Z,2.50
2017-10-16T04:09:00.506Z,2.10
2017-10-16T04:11:28.915Z,2.00
2017-10-16T04:13:57.556Z,2.53
2017-10-16T04:16:26.161Z,2.10
2017-10-16T04:18:54.533Z,2.47
2017-10-16T04:21:23.292Z,2.00
2017-10-16T04:23:51.628Z,2.07
2017-10-16T04:26:20.090Z,2.47
2017-10-16T04:28:48.391Z,4.20
2017-10-16T04:31:16.958Z,2.90
2017-10-16T04:33:45.470Z,2.63
2017-10-16T04:36:13.786Z,2.10
2017-10-16T04:38:42.145Z,2.47
2017-10-16T04:41:10.501Z,2.60
2017-10-16T04:43:39.077Z,2.83
2017-10-16T04:46:07.516Z,4.13
2017-10-16T04:48:35.889Z,3.30
2017-10-16T04:51:04.425Z,3.07
2017-10-16T04:53:32.788Z,3.37
2017-10-16T04:56:01.294Z,3.13
2017-10-16T04:58:29.650Z,2.83
2017-10-16T05:00:58.450Z,6.97
2017-10-16T05:03:27.662Z,5.90
2017-10-16T05:05:56.009Z,5.23
2017-10-16T05:08:24.504Z,5.00
2017-10-16T05:10:52.914Z,4.20
2017-10-16T05:13:21.383Z,4.43
2017-10-16T05:15:49.924Z,2.90
2017-10-16T05:18:18.478Z,4.40
2017-10-16T05:23:19.337Z,3.40
2017-10-16T05:25:48.123Z,3.33
2017-10-16T05:28:16.579Z,3.77
2017-10-16T05:30:44.998Z,4.13
2017-10-16T05:33:13.451Z,4.27
2017-10-16T05:35:43.845Z,4.57
2017-10-16T05:38:16.472Z,3.87
2017-10-16T05:40:45.254Z,3.70
2017-10-16T05:43:15.425Z,3.60
2017-10-16T05:45:44.830Z,3.40
2017-10-16T05:48:18.430Z,3.70
2017-10-16T05:50:47.655Z,3.57
2017-10-16T05:55:49.233Z,4.50
2017-10-16T05:58:18.473Z,4.10
2017-10-16T06:00:47.018Z,4.70
2017-10-16T06:03:15.542Z,3.80
2017-10-16T06:05:44.274Z,5.10
2017-10-16T06:08:13.398Z,3.80
2017-10-16T06:13:14.417Z,3.93
2017-10-16T06:18:15.435Z,3.77
2017-10-16T06:20:44.717Z,4.03
2017-10-16T06:23:13.173Z,3.50
2017-10-16T06:25:41.853Z,4.20
2017-10-16T06:28:10.369Z,4.10
2017-10-16T06:30:38.869Z,3.90
2017-10-16T06:33:07.294Z,3.97
2017-10-16T06:35:35.697Z,3.80
2017-10-16T06:38:04.120Z,3.30
2017-10-16T06:40:36.374Z,3.47
2017-10-16T06:43:06.901Z,2.60
2017-10-16T06:48:10.007Z,3.90
2017-10-16T06:50:38.859Z,3.60
2017-10-16T06:53:07.528Z,4.40
2017-10-16T06:58:08.718Z,4.70
2017-10-16T07:03:09.775Z,4.50
2017-10-16T07:05:38.230Z,5.30
2017-10-16T07:08:06.652Z,4.00
2017-10-16T07:10:35.837Z,4.80
2017-10-16T07:13:04.654Z,4.27
2017-10-16T07:15:33.206Z,4.30
2017-10-16T07:23:08.677Z,4.03
2017-10-16T07:25:37.739Z,3.70
2017-10-16T07:30:39.032Z,4.10
2017-10-16T07:33:07.618Z,4.00
2017-10-16T07:35:36.260Z,3.30
2017-10-16T07:40:39.449Z,5.17
2017-10-16T07:43:08.097Z,4.10
2017-10-16T07:48:09.485Z,3.43
2017-10-16T07:50:37.921Z,4.00
2017-10-16T07:55:39.912Z,3.87
2017-10-16T07:58:09.300Z,4.20
2017-10-16T08:00:37.772Z,4.20
2017-10-16T08:08:12.417Z,6.07
2017-10-16T08:10:40.913Z,6.33
2017-10-16T08:15:42.102Z,3.10
2017-10-16T08:18:10.725Z,4.03
2017-10-16T08:20:39.158Z,4.13
2017-10-16T08:25:40.247Z,6.50
2017-10-16T08:28:09.195Z,4.67
2017-10-16T08:30:37.583Z,3.80
2017-10-16T08:33:07.599Z,4.80
2017-10-16T08:38:09.475Z,3.50
2017-10-16T08:40:38.092Z,3.10
2017-10-16T08:43:07.101Z,4.60
2017-10-16T08:45:35.861Z,3.47
2017-10-16T08:48:04.296Z,3.03
2017-10-16T08:53:05.258Z,3.43
2017-10-16T08:55:34.044Z,3.53
2017-10-16T08:58:02.780Z,3.93
2017-10-16T09:00:34.723Z,3.73
2017-10-16T09:03:03.649Z,5.47
2017-10-16T09:05:36.227Z,4.07
2017-10-16T09:08:06.595Z,3.87
2017-10-16T09:10:35.074Z,4.10
2017-10-16T09:13:03.964Z,3.60
2017-10-16T09:15:33.382Z,3.93
2017-10-16T09:18:02.049Z,3.53
2017-10-16T09:20:30.624Z,3.27
2017-10-16T09:22:59.204Z,5.50
2017-10-16T09:25:29.102Z,5.37
2017-10-16T09:28:00.282Z,2.83
2017-10-16T09:33:01.839Z,3.17
2017-10-16T09:35:30.718Z,3.03
2017-10-16T09:37:59.730Z,2.53
2017-10-16T09:40:28.363Z,2.87
2017-10-16T09:42:56.933Z,3.30
2017-10-16T09:45:25.730Z,4.10
2017-10-16T09:50:27.050Z,3.33
2017-10-16T09:52:55.887Z,5.47
2017-10-16T09:55:25.289Z,4.53
2017-10-16T09:57:53.816Z,3.50
2017-10-16T10:00:22.243Z,3.90
2017-10-16T10:05:26.258Z,3.43
2017-10-16T10:07:54.933Z,3.30
2017-10-16T10:13:18.531Z,4.03
2017-10-16T10:18:19.718Z,4.73
2017-10-16T10:20:48.834Z,5.93
2017-10-16T10:23:18.244Z,11.03
2017-10-16T10:25:47.078Z,6.83
2017-10-16T10:30:48.262Z,7.73
2017-10-16T10:33:16.791Z,7.40
2017-10-16T10:38:20.465Z,5.10
2017-10-16T10:40:48.907Z,4.60
2017-10-16T10:43:17.742Z,3.90
2017-10-16T10:48:19.017Z,10.73
2017-10-16T10:50:47.737Z,5.97
2017-10-16T10:53:20.229Z,4.97
2017-10-16T10:58:22.782Z,4.07
2017-10-16T11:03:25.076Z,3.87
2017-10-16T11:11:00.330Z,5.17
2017-10-16T11:13:34.272Z,6.50
2017-10-16T11:16:03.078Z,6.03
2017-10-16T11:18:33.576Z,7.00
2017-10-16T11:21:02.599Z,6.20
2017-10-16T11:23:31.097Z,8.77
2017-10-16T11:25:59.665Z,6.60
2017-10-16T11:28:30.112Z,6.20
2017-10-16T11:30:58.613Z,8.73
2017-10-16T11:33:27.062Z,5.80
2017-10-16T11:35:55.550Z,5.10
2017-10-16T11:38:24.018Z,4.50
2017-10-16T11:40:52.985Z,5.00
2017-10-16T11:43:21.424Z,3.90
2017-10-16T11:45:49.899Z,4.47
2017-10-16T11:48:19.073Z,5.83
2017-10-16T11:50:47.598Z,4.10
2017-10-16T11:53:16.025Z,4.67
2017-10-16T11:58:17.122Z,4.80
2017-10-16T12:00:45.872Z,5.30
2017-10-16T12:03:14.292Z,4.77
2017-10-16T12:05:42.674Z,4.87
2017-10-16T12:08:11.174Z,4.67
2017-10-16T12:10:40.011Z,5.83
2017-10-16T12:13:09.354Z,6.33
2017-10-16T12:15:37.905Z,3.87
2017-10-16T12:18:06.747Z,4.53
2017-10-16T12:20:35.758Z,5.30
2017-10-16T12:23:05.364Z,6.30
2017-10-16T12:25:33.855Z,4.87
2017-10-16T12:28:02.580Z,4.37
2017-10-16T12:30:31.963Z,3.83
2017-10-16T12:33:00.943Z,6.13
2017-10-16T12:35:30.130Z,4.97
2017-10-16T12:37:58.513Z,4.47
2017-10-16T12:40:27.558Z,5.00
2017-10-16T12:42:59.480Z,4.70
2017-10-16T12:45:28.206Z,5.83
2017-10-16T12:47:57.059Z,5.37
2017-10-16T12:50:25.649Z,5.50
2017-10-16T12:55:27.059Z,5.97
2017-10-16T12:57:55.534Z,4.40
2017-10-16T13:00:24.396Z,6.07
2017-10-16T13:05:40.980Z,4.93
2017-10-16T13:08:11.097Z,4.63
2017-10-16T13:10:39.697Z,5.13
2017-10-16T13:13:08.214Z,6.23
2017-10-16T13:15:36.770Z,6.47
2017-10-16T13:18:05.338Z,5.20
2017-10-16T13:20:33.783Z,4.60
2017-10-16T13:23:02.350Z,4.60
2017-10-16T13:25:31.218Z,3.90
2017-10-16T13:27:59.627Z,4.40
2017-10-16T13:30:28.200Z,4.43
2017-10-16T13:32:56.814Z,5.17
2017-10-16T13:35:25.269Z,5.30
2017-10-16T13:37:56.384Z,4.40
2017-10-16T13:40:24.787Z,6.50
2017-10-16T13:42:53.165Z,5.33
2017-10-16T13:45:21.719Z,4.67
2017-10-16T13:47:50.174Z,5.00
2017-10-16T13:50:18.891Z,4.40
2017-10-16T13:52:47.367Z,5.90
2017-10-16T13:55:16.363Z,5.40
2017-10-16T13:57:45.114Z,5.03
2017-10-16T14:00:13.852Z,5.63
2017-10-16T14:02:42.312Z,11.33
2017-10-16T14:05:11.070Z,7.90
2017-10-16T14:07:41.241Z,10.93
2017-10-16T14:10:13.543Z,7.50
2017-10-16T14:12:42.399Z,7.70
2017-10-16T14:15:11.582Z,5.93
2017-10-16T14:17:40.007Z,7.90
2017-10-16T14:20:08.886Z,13.33
2017-10-16T14:22:37.496Z,6.13
2017-10-16T14:25:07.690Z,7.10
2017-10-16T14:27:36.153Z,8.30
2017-10-16T14:32:38.271Z,5.10
2017-10-16T14:37:39.748Z,5.10
2017-10-16T14:40:08.970Z,5.70
2017-10-16T14:45:10.465Z,4.60
2017-10-16T14:47:42.905Z,5.77
2017-10-16T14:50:15.716Z,6.30
2017-10-16T14:58:07.402Z,5.00
2017-10-16T15:05:41.563Z,5.10
2017-10-16T15:08:13.699Z,6.50
2017-10-16T15:10:42.206Z,6.40
2017-10-16T15:23:21.941Z,5.27
2017-10-16T15:30:55.686Z,5.17
2017-10-16T15:33:28.470Z,5.07
2017-10-16T15:35:58.958Z,5.80
2017-10-16T15:38:29.471Z,6.60
2017-10-16T15:40:58.504Z,7.70
2017-10-16T15:43:27.208Z,5.30
2017-10-16T15:45:55.682Z,5.20
2017-10-16T15:50:58.832Z,5.23
2017-10-16T15:53:27.781Z,6.37
2017-10-16T15:58:29.747Z,5.30
2017-10-16T16:00:58.322Z,5.57
2017-10-16T16:06:00.332Z,6.00
2017-10-16T16:08:29.155Z,6.90
2017-10-16T16:18:38.755Z,5.33
2017-10-16T16:23:41.051Z,6.10
2017-10-16T16:28:42.274Z,6.30
2017-10-16T16:31:10.681Z,6.70
2017-10-16T16:33:39.051Z,6.90
2017-10-16T16:36:07.512Z,9.00
2017-10-16T16:38:35.997Z,6.63
2017-10-16T16:41:04.431Z,8.27
2017-10-16T16:43:34.668Z,7.00
2017-10-16T16:48:38.033Z,8.00
2017-10-16T16:51:06.726Z,8.83
2017-10-16T16:53:39.147Z,8.17
2017-10-16T17:05:00.114Z,9.67
2017-10-16T17:07:28.653Z,10.30
2017-10-16T17:12:29.934Z,8.93
2017-10-16T17:14:58.546Z,8.83
2017-10-16T17:22:58.846Z,10.80
2017-10-16T17:25:28.389Z,10.83
2017-10-16T17:30:29.515Z,12.03
2017-10-16T17:32:58.071Z,11.03
2017-10-16T17:35:27.333Z,9.63
2017-10-16T17:37:55.903Z,10.67
2017-10-16T17:43:04.031Z,10.53
2017-10-16T17:48:09.087Z,9.70
2017-10-16T17:50:37.524Z,11.10
2017-10-16T17:55:40.024Z,9.07
2017-10-16T18:00:41.487Z,7.80
2017-10-16T18:05:42.852Z,10.67
2017-10-16T18:13:52.754Z,11.20
2017-10-16T18:21:34.554Z,11.00
2017-10-16T18:29:08.740Z,11.07
2017-10-16T18:31:40.449Z,11.40
2017-10-16T18:34:08.895Z,12.07
2017-10-16T18:36:38.544Z,12.20
2017-10-16T18:39:07.134Z,12.83
2017-10-16T18:41:36.855Z,11.70
2017-10-16T18:44:10.979Z,12.27
2017-10-16T18:49:12.189Z,13.03
2017-10-16T18:54:13.644Z,12.63
2017-10-16T18:56:42.701Z,12.10
2017-10-16T18:59:12.494Z,12.90
2017-10-16T19:04:17.222Z,12.83
2017-10-16T19:06:46.590Z,10.87
2017-10-16T19:09:14.998Z,10.90
2017-10-16T19:11:49.555Z,10.80
2017-10-16T19:14:18.134Z,10.30
2017-10-16T19:16:49.844Z,10.50
2017-10-16T19:21:51.167Z,12.30
2017-10-16T19:24:20.412Z,13.93
2017-10-16T19:26:50.379Z,15.43
2017-10-16T19:29:18.841Z,13.00
2017-10-16T19:31:47.308Z,13.60
2017-10-16T19:34:16.088Z,12.33
2017-10-16T19:36:44.604Z,11.33
2017-10-16T19:39:13.107Z,11.33
2017-10-16T19:41:45.394Z,10.90
2017-10-16T19:44:13.920Z,12.67
2017-10-16T19:46:42.522Z,10.00
2017-10-16T19:51:47.407Z,12.60
2017-10-16T19:54:16.108Z,11.57
2017-10-16T19:56:45.236Z,12.00
2017-10-16T19:59:14.495Z,13.63
2017-10-16T20:01:43.103Z,11.63
2017-10-16T20:04:11.459Z,11.40
2017-10-16T20:06:49.597Z,10.40
2017-10-16T20:09:17.991Z,10.60
2017-10-16T20:11:46.622Z,10.10
2017-10-16T20:14:15.138Z,12.43
2017-10-16T20:16:43.854Z,12.20
2017-10-16T20:19:12.319Z,11.10
2017-10-16T20:21:40.824Z,10.90
2017-10-16T20:24:09.317Z,9.90
2017-10-16T20:26:37.892Z,9.47
2017-10-16T20:29:06.445Z,10.77
2017-10-16T20:31:35.026Z,11.47
2017-10-16T20:34:05.613Z,8.33
2017-10-16T20:36:34.179Z,10.90
2017-10-16T20:39:02.665Z,10.73
2017-10-16T20:41:31.174Z,11.30
2017-10-16T20:46:32.606Z,11.43
2017-10-16T20:49:01.007Z,12.03
2017-10-16T20:51:29.735Z,11.23
2017-10-16T20:53:58.604Z,10.57
2017-10-16T20:56:27.030Z,9.90
2017-10-16T20:58:58.931Z,9.70
2017-10-16T21:01:27.330Z,8.90
2017-10-16T21:03:55.762Z,10.90
2017-10-16T21:06:24.201Z,10.83
2017-10-16T21:08:52.606Z,10.20
2017-10-16T21:11:20.986Z,10.17
2017-10-16T21:13:49.403Z,9.97
2017-10-16T21:16:17.836Z,9.27
2017-10-16T21:18:48.482Z,10.93
2017-10-16T21:21:16.863Z,10.20
2017-10-16T21:23:45.289Z,8.33
2017-10-16T21:26:13.734Z,9.23
2017-10-16T21:28:42.147Z,12.30
2017-10-16T21:31:11.252Z,8.70
2017-10-16T21:33:40.000Z,8.10
2017-10-16T21:36:08.481Z,8.00
2017-10-16T21:38:36.939Z,9.67
2017-10-16T21:41:05.441Z,8.63
2017-10-16T21:43:33.844Z,8.13
2017-10-16T21:46:02.582Z,8.80
2017-10-16T21:48:30.980Z,9.43
2017-10-16T21:50:59.727Z,8.90
2017-10-16T21:53:28.109Z,8.80
2017-10-16T21:55:56.456Z,8.80
2017-10-16T21:58:24.883Z,10.17
2017-10-16T22:00:53.237Z,9.10
2017-10-16T22:03:21.643Z,10.03
